South Lake Tahoe, California
Current Conditions -  °F | °C
As of 12:53 AM on Saturday 22 Nov 2014 (Local Time) from KTVL Reporting Station
Overcast Overcast  
Wind Chill: 38°   Ceiling: 4300
Heat Index: 44°   Visibility: 10mi
Dew Point: 36°   Wind: 13mph
Humidity: 73%   Direction: 200°SSW
Pressure: 30.12"   Gusts: 22mph
Location:  38.91°N, 120°W
Report Text: KTVL 220853Z AUTO 20011G19KT 10SM FEW021 BKN043 OVC065 07/02 A3012 RMK AO2 SLP168 T00670022 50002
Loading
Personal Weather Stations






























Interactive Weather Map New forecast layout! Learn more

10-Day Weather Forecast

Advertisements
Track Severe Weather on mobile